This is the latest recevied weather packets stored in our database for station/object EA7AVH-10. If no packets are shown the sender has not sent any weather packets the latest 10 day(s).
| Time | Temp. | Humidity | Pressure | Rain* | Wind** | Luminosity | Snow |
|---|---|---|---|---|---|---|---|
| 1777895239 | 26.11° C | 37% | 920.1 hPa | - | - | - | - |
| 1777894338 | 27.22° C | 38% | 920.2 hPa | - | - | - | - |
| 1777893438 | 27.78° C | 39% | 920.3 hPa | - | - | - | - |
| 1777892556 | 30.56° C | 36% | 920.4 hPa | - | - | - | - |
| 1777891655 | 28.33° C | 40% | 920.7 hPa | - | - | - | - |
| 1777890755 | 28.89° C | 40% | 920.7 hPa | - | - | - | - |
| 1777889854 | 31.67° C | 37% | 920.9 hPa | - | - | - | - |
| 1777888953 | 32.78° C | 37% | 921.1 hPa | - | - | - | - |
| 1777888052 | 32.78° C | 37% | 921.1 hPa | - | - | - | - |
| 1777887151 | 32.22° C | 39% | 921.3 hPa | - | - | - | - |
| 1777886251 | 31.67° C | 39% | 921.5 hPa | - | - | - | - |
| 1777885350 | 31.11° C | 40% | 921.4 hPa | - | - | - | - |
| 1777884449 | 30.56° C | 41% | 921.4 hPa | - | - | - | - |
| 1777883548 | 29.44° C | 44% | 921.4 hPa | - | - | - | - |
| 1777882647 | 30° C | 44% | 921.5 hPa | - | - | - | - |
| 1777881747 | 30° C | 45% | 921.4 hPa | - | - | - | - |
| 1777880846 | 29.44° C | 47% | 921.5 hPa | - | - | - | - |
| 1777879945 | 28.33° C | 49% | 921.5 hPa | - | - | - | - |
| 1777879044 | 26.67° C | 52% | 921.5 hPa | - | - | - | - |
| 1777878143 | 23.33° C | 57% | 921.4 hPa | - | - | - | - |
| 1777877243 | 16.11° C | 68% | 921.3 hPa | - | - | - | - |
| 1777876342 | 16.67° C | 67% | 921 hPa | - | - | - | - |
| 1777875441 | 17.22° C | 68% | 921.1 hPa | - | - | - | - |
| 1777874540 | 16.11° C | 68% | 921 hPa | - | - | - | - |
| 1777873639 | 16.67° C | 68% | 920.9 hPa | - | - | - | - |
* Rain since midnight (hover to see other rain measurements)
** Current wind speed in m/s (hover to see current wind gust speed)